Time;durP1;ratioP1;P1;durP2;ratioP2;P2;SDS_P1;SDS_P2;PMS_P1;PMS_P2;Temp;Humidity;BMP_temperature;BMP_pressure;BME280_temperature;BME280_humidity;BME280_pressure;Samples;Min_cycle;Max_cycle;Signal;HPM_P1;HPM_P2
2021/08/14 00:02:16;;;;;;;12.57;7.53;;;24.70;1.00;;;;;;4993492;28;20030;-80
2021/08/14 00:04:41;;;;;;;13.48;7.68;;;24.60;1.00;;;;;;4993079;28;20169;-80
2021/08/14 00:07:07;;;;;;;12.00;7.22;;;24.60;1.00;;;;;;4975752;28;20037;-80
2021/08/14 00:09:36;;;;;;;12.93;7.80;;;24.50;1.00;;;;;;4993019;28;20030;-80
2021/08/14 00:12:04;;;;;;;12.60;7.40;;;24.50;1.00;;;;;;4993161;28;20030;-80
2021/08/14 00:14:30;;;;;;;11.70;7.40;;;24.40;1.00;;;;;;4993687;28;20046;-80
2021/08/14 00:16:56;;;;;;;16.38;6.95;;;24.40;1.00;;;;;;4994128;28;20065;-80
2021/08/14 00:19:22;;;;;;;16.38;7.20;;;24.50;1.00;;;;;;4992969;28;20034;-79
2021/08/14 00:21:47;;;;;;;12.40;7.35;;;24.40;1.00;;;;;;4992592;28;20068;-80
2021/08/14 00:24:13;;;;;;;15.05;7.93;;;24.20;1.00;;;;;;4992764;28;20501;-80
2021/08/14 00:26:38;;;;;;;13.45;7.72;;;24.20;1.00;;;;;;4993678;28;20161;-79
2021/08/14 00:29:04;;;;;;;10.95;7.32;;;24.10;1.00;;;;;;4993407;28;20297;-79
2021/08/14 00:31:30;;;;;;;12.93;7.93;;;24.20;1.00;;;;;;4992989;28;20041;-80
2021/08/14 00:33:56;;;;;;;15.45;7.90;;;24.30;1.00;;;;;;4992184;28;20031;-79
2021/08/14 00:36:21;;;;;;;14.52;7.32;;;24.10;1.00;;;;;;4992762;28;20033;-80
2021/08/14 00:38:47;;;;;;;19.52;7.63;;;24.10;1.00;;;;;;4992519;28;20034;-79
2021/08/14 00:41:13;;;;;;;15.45;8.27;;;24.00;1.00;;;;;;4992690;28;20030;-80
2021/08/14 00:43:40;;;;;;;12.43;7.50;;;24.00;1.00;;;;;;4993226;28;20099;-80
2021/08/14 00:46:06;;;;;;;18.25;7.70;;;24.10;1.00;;;;;;4992420;28;20069;-80
2021/08/14 00:48:31;;;;;;;13.93;7.75;;;24.20;1.00;;;;;;4991938;28;20030;-79
2021/08/14 00:50:58;;;;;;;12.95;7.57;;;24.20;1.00;;;;;;4992235;28;20077;-80
2021/08/14 00:53:24;;;;;;;14.93;7.72;;;24.00;1.00;;;;;;4992350;28;20015;-80
2021/08/14 00:55:51;;;;;;;13.35;7.55;;;24.00;1.00;;;;;;4993640;28;20022;-80
2021/08/14 00:58:17;;;;;;;13.18;8.10;;;23.90;1.00;;;;;;4992333;28;20034;-79
2021/08/14 01:00:43;;;;;;;16.33;8.20;;;24.00;1.00;;;;;;4992822;28;20105;-80
2021/08/14 01:03:10;;;;;;;13.30;8.10;;;24.00;1.00;;;;;;4991857;28;20062;-80
2021/08/14 01:05:45;;;;;;;12.60;7.85;;;24.00;1.00;;;;;;4992070;28;20108;-80
2021/08/14 01:08:11;;;;;;;17.83;8.55;;;24.00;1.00;;;;;;4992405;28;20501;-80
2021/08/14 01:10:37;;;;;;;15.05;7.95;;;24.00;1.00;;;;;;4991405;28;20137;-80
2021/08/14 01:13:03;;;;;;;14.15;8.02;;;23.90;1.00;;;;;;4991900;28;20050;-80
2021/08/14 01:15:29;;;;;;;12.15;7.50;;;23.80;1.00;;;;;;4992110;28;20413;-80
2021/08/14 01:17:55;;;;;;;13.38;7.68;;;23.80;1.00;;;;;;4991026;28;20022;-80
2021/08/14 01:20:21;;;;;;;11.85;7.70;;;23.80;1.00;;;;;;4973638;28;20034;-80
2021/08/14 01:22:47;;;;;;;11.95;7.70;;;23.70;1.00;;;;;;4992965;28;20398;-80
2021/08/14 01:25:12;;;;;;;15.60;7.82;;;23.70;1.00;;;;;;4991838;28;20113;-80
2021/08/14 01:27:39;;;;;;;14.25;8.05;;;23.70;1.00;;;;;;4991906;28;20106;-80
2021/08/14 01:30:06;;;;;;;14.90;8.13;;;23.70;1.00;;;;;;4992290;28;20041;-80
2021/08/14 01:32:32;;;;;;;13.20;7.85;;;23.60;1.00;;;;;;4991418;28;20117;-80
2021/08/14 01:34:59;;;;;;;12.90;8.10;;;23.70;1.00;;;;;;4992122;28;20035;-80
2021/08/14 01:37:25;;;;;;;15.02;8.43;;;23.60;1.00;;;;;;4991622;28;20045;-80
2021/08/14 01:39:50;;;;;;;14.57;8.88;;;23.60;1.00;;;;;;4991639;28;20394;-80
2021/08/14 01:42:16;;;;;;;11.50;7.88;;;23.60;1.00;;;;;;4991630;28;20030;-80
2021/08/14 01:44:42;;;;;;;14.80;8.40;;;23.70;1.00;;;;;;4991756;28;20069;-80
2021/08/14 01:47:09;;;;;;;16.63;8.20;;;23.60;1.00;;;;;;4991304;28;20030;-80
2021/08/14 01:49:35;;;;;;;14.32;8.50;;;23.70;1.00;;;;;;4992427;28;20065;-80
2021/08/14 01:52:14;;;;;;;12.63;8.07;;;23.60;1.00;;;;;;4991619;28;20395;-80
2021/08/14 01:54:41;;;;;;;15.32;7.95;;;23.60;1.00;;;;;;4991574;28;20041;-80
2021/08/14 01:57:07;;;;;;;14.27;7.93;;;23.60;1.00;;;;;;4991585;28;20030;-80
2021/08/14 01:59:34;;;;;;;12.75;8.57;;;23.50;1.00;;;;;;4959367;28;20383;-80
2021/08/14 02:02:00;;;;;;;15.90;8.63;;;23.40;1.00;;;;;;4991568;28;20098;-80
2021/08/14 02:04:26;;;;;;;13.70;8.57;;;23.40;1.00;;;;;;4991053;28;20042;-80
2021/08/14 02:06:52;;;;;;;18.13;7.97;;;23.40;1.00;;;;;;4991408;28;20054;-80
2021/08/14 02:09:18;;;;;;;12.60;7.32;;;23.40;1.00;;;;;;4991034;28;20061;-80
2021/08/14 02:11:43;;;;;;;11.10;8.13;;;23.30;1.00;;;;;;4991892;28;20398;-79
2021/08/14 02:14:09;;;;;;;15.73;8.20;;;23.30;1.00;;;;;;4991363;28;20046;-80
2021/08/14 02:16:35;;;;;;;13.73;7.88;;;23.20;1.00;;;;;;4991649;28;20027;-80
2021/08/14 02:19:02;;;;;;;13.43;7.50;;;23.20;1.00;;;;;;4991099;28;20027;-80
2021/08/14 02:21:28;;;;;;;13.80;7.68;;;23.10;1.00;;;;;;4991034;28;20061;-80
2021/08/14 02:23:55;;;;;;;13.48;7.97;;;23.10;1.00;;;;;;4991763;28;20031;-80
2021/08/14 02:26:21;;;;;;;15.75;8.05;;;23.00;1.00;;;;;;4991577;28;20403;-80
2021/08/14 02:28:47;;;;;;;12.73;8.25;;;23.10;1.00;;;;;;4994362;28;20034;-80
2021/08/14 02:31:13;;;;;;;12.45;7.30;;;23.00;1.00;;;;;;4994902;28;20034;-80
2021/08/14 02:33:38;;;;;;;14.13;7.78;;;23.10;1.00;;;;;;4994851;28;20395;-80
2021/08/14 02:36:06;;;;;;;14.65;7.90;;;23.00;1.00;;;;;;4994989;28;20090;-80
2021/08/14 02:38:36;;;;;;;16.73;8.50;;;23.00;1.00;;;;;;4994931;28;20034;-80
2021/08/14 02:41:03;;;;;;;12.48;8.40;;;23.00;1.00;;;;;;4991733;28;20054;-80
2021/08/14 02:43:29;;;;;;;16.17;9.57;;;23.00;1.00;;;;;;4994525;28;20117;-80
2021/08/14 02:45:55;;;;;;;13.95;8.45;;;23.00;1.00;;;;;;4994698;28;20440;-80
2021/08/14 02:48:21;;;;;;;16.90;8.77;;;23.00;1.00;;;;;;4994561;28;20022;-80
2021/08/14 02:50:47;;;;;;;15.90;8.88;;;22.90;1.00;;;;;;4995015;28;20033;-80
2021/08/14 02:53:14;;;;;;;14.30;8.43;;;23.00;1.00;;;;;;4995155;28;20026;-80
2021/08/14 02:55:40;;;;;;;17.08;9.13;;;23.00;1.00;;;;;;4995157;28;20033;-80
2021/08/14 02:58:06;;;;;;;17.60;8.20;;;23.10;1.00;;;;;;4994514;28;20506;-80
2021/08/14 03:00:32;;;;;;;16.80;9.25;;;22.90;1.00;;;;;;4994072;28;20041;-80
2021/08/14 03:02:58;;;;;;;11.10;8.00;;;22.90;1.00;;;;;;4994780;28;20030;-80
2021/08/14 03:05:23;;;;;;;14.82;9.23;;;23.00;1.00;;;;;;4994430;28;20026;-80
2021/08/14 03:07:49;;;;;;;17.65;9.38;;;23.10;1.00;;;;;;4994977;28;20096;-80
2021/08/14 03:10:15;;;;;;;15.27;8.80;;;23.10;1.00;;;;;;4994242;28;20502;-80
2021/08/14 03:12:40;;;;;;;14.10;8.50;;;23.10;1.00;;;;;;4994632;28;20038;-80
2021/08/14 03:15:07;;;;;;;16.88;8.60;;;23.00;1.00;;;;;;4994159;28;20127;-80
2021/08/14 03:17:33;;;;;;;15.13;8.70;;;23.00;1.00;;;;;;4994669;28;20101;-80
2021/08/14 03:20:03;;;;;;;14.70;8.48;;;23.00;1.00;;;;;;4994651;28;20491;-80
2021/08/14 03:22:29;;;;;;;14.90;9.50;;;23.10;1.00;;;;;;4994113;28;20121;-80
2021/08/14 03:24:54;;;;;;;16.25;8.45;;;23.10;1.00;;;;;;4994493;28;20447;-80
2021/08/14 03:27:20;;;;;;;13.15;8.00;;;23.10;1.00;;;;;;4993702;28;20517;-80
2021/08/14 03:29:46;;;;;;;19.77;8.23;;;23.10;1.00;;;;;;4993544;28;20121;-80
2021/08/14 03:32:12;;;;;;;17.27;8.90;;;23.10;1.00;;;;;;4994409;28;20113;-80
2021/08/14 03:34:37;;;;;;;14.45;8.60;;;22.90;1.00;;;;;;4993288;28;20026;-80
2021/08/14 03:37:03;;;;;;;12.20;8.32;;;22.90;1.00;;;;;;4993899;28;20451;-80
2021/08/14 03:39:29;;;;;;;14.93;8.18;;;22.80;1.00;;;;;;4992929;28;20030;-80
2021/08/14 03:41:54;;;;;;;16.52;9.20;;;22.80;1.00;;;;;;4994142;28;20105;-80
2021/08/14 03:44:20;;;;;;;17.30;9.70;;;22.80;1.00;;;;;;4993590;28;20505;-80
2021/08/14 03:46:46;;;;;;;15.05;8.88;;;22.70;1.00;;;;;;4993890;28;20101;-80
2021/08/14 03:49:11;;;;;;;15.75;8.50;;;22.70;1.00;;;;;;4994013;28;20038;-80
2021/08/14 03:51:37;;;;;;;15.82;8.88;;;22.70;1.00;;;;;;4993890;28;20030;-80
2021/08/14 03:54:03;;;;;;;17.42;9.43;;;22.70;1.00;;;;;;4993755;28;20522;-80
2021/08/14 03:56:28;;;;;;;15.48;9.38;;;22.60;1.00;;;;;;4993788;28;20031;-80
2021/08/14 03:58:54;;;;;;;15.18;9.20;;;22.50;1.00;;;;;;4993610;28;20106;-80
2021/08/14 04:01:19;;;;;;;14.82;8.90;;;22.60;1.00;;;;;;4993246;28;20041;-80
2021/08/14 04:03:45;;;;;;;15.02;8.63;;;22.60;1.00;;;;;;4993580;28;20053;-80
2021/08/14 04:06:10;;;;;;;14.85;9.15;;;22.50;1.00;;;;;;4993589;28;20026;-80
2021/08/14 04:08:36;;;;;;;13.20;8.48;;;22.60;1.00;;;;;;4993351;28;20398;-80
2021/08/14 04:11:06;;;;;;;14.40;8.68;;;22.50;1.00;;;;;;4993761;28;20033;-80
2021/08/14 04:13:31;;;;;;;11.93;8.38;;;22.30;1.00;;;;;;4992594;28;20156;-80
2021/08/14 04:15:57;;;;;;;16.50;8.57;;;22.50;1.00;;;;;;4993087;28;20090;-80
2021/08/14 04:18:23;;;;;;;13.10;8.52;;;22.50;1.00;;;;;;4994183;28;20474;-80
2021/08/14 04:20:49;;;;;;;19.70;8.43;;;22.40;1.00;;;;;;4992967;28;20030;-80
2021/08/14 04:23:14;;;;;;;15.40;8.13;;;22.40;1.00;;;;;;4993029;28;20482;-80
2021/08/14 04:25:40;;;;;;;18.67;8.05;;;22.40;1.00;;;;;;4993487;28;20054;-79
2021/08/14 04:28:05;;;;;;;13.98;8.00;;;22.30;1.00;;;;;;4992927;28;20022;-80
2021/08/14 04:30:31;;;;;;;14.15;7.93;;;22.30;1.00;;;;;;4992989;28;20406;-79
2021/08/14 04:32:57;;;;;;;16.98;8.85;;;22.30;1.00;;;;;;4992545;28;20023;-80
2021/08/14 04:35:22;;;;;;;16.60;8.80;;;22.30;1.00;;;;;;4993274;28;20034;-80
2021/08/14 04:37:49;;;;;;;12.38;7.78;;;22.20;1.00;;;;;;4993612;28;20105;-80
2021/08/14 04:40:15;;;;;;;10.18;7.82;;;22.20;1.00;;;;;;4992588;28;20117;-79
2021/08/14 04:42:42;;;;;;;10.80;8.45;;;22.20;1.00;;;;;;4992451;28;20062;-79
2021/08/14 04:45:09;;;;;;;14.73;9.95;;;22.20;1.00;;;;;;4992373;28;20072;-80
2021/08/14 04:47:34;;;;;;;14.02;9.32;;;22.20;1.00;;;;;;4977567;28;20015;-80
2021/08/14 04:50:00;;;;;;;14.57;10.13;;;22.20;1.00;;;;;;4992791;28;20040;-80
2021/08/14 04:52:26;;;;;;;18.15;9.40;;;22.40;1.00;;;;;;4992421;28;20277;-80
2021/08/14 04:54:52;;;;;;;13.82;8.93;;;22.40;1.00;;;;;;4992445;28;20066;-79
2021/08/14 04:57:18;;;;;;;14.55;8.90;;;22.30;1.00;;;;;;4992145;28;20502;-80
2021/08/14 04:59:43;;;;;;;13.13;8.52;;;22.30;1.00;;;;;;4992615;28;20471;-80
2021/08/14 05:02:09;;;;;;;15.13;8.93;;;22.40;1.00;;;;;;4992368;28;20088;-80
2021/08/14 05:04:35;;;;;;;17.05;8.50;;;22.50;1.00;;;;;;4992853;28;20046;-79
2021/08/14 05:07:00;;;;;;;16.50;8.88;;;22.50;1.00;;;;;;4992254;28;20418;-80
2021/08/14 05:09:27;;;;;;;17.45;8.93;;;22.50;1.00;;;;;;4991481;28;20376;-79
2021/08/14 05:11:52;;;;;;;14.60;9.30;;;22.40;1.00;;;;;;4992568;28;20019;-80
2021/08/14 05:14:18;;;;;;;13.18;8.57;;;22.50;1.00;;;;;;4992288;28;20073;-80
2021/08/14 05:16:44;;;;;;;12.88;8.43;;;22.50;1.00;;;;;;4992456;28;20178;-80
2021/08/14 05:19:10;;;;;;;12.27;8.40;;;22.50;1.00;;;;;;4991886;28;20037;-79
2021/08/14 05:21:36;;;;;;;14.20;8.65;;;22.60;1.00;;;;;;4992257;28;20022;-79
2021/08/14 05:24:03;;;;;;;14.27;9.00;;;22.60;1.00;;;;;;4990862;28;20038;-80
2021/08/14 05:26:29;;;;;;;16.38;8.40;;;22.70;1.00;;;;;;4991732;28;20049;-80
2021/08/14 05:28:55;;;;;;;12.88;8.68;;;22.70;1.00;;;;;;4992652;28;20035;-81
2021/08/14 05:31:20;;;;;;;13.95;8.73;;;22.70;1.00;;;;;;4991510;28;20046;-80
2021/08/14 05:33:46;;;;;;;13.68;8.75;;;22.80;1.00;;;;;;4991792;28;20058;-80
2021/08/14 05:36:12;;;;;;;12.48;8.45;;;22.70;1.00;;;;;;4992054;28;20027;-80
2021/08/14 05:38:38;;;;;;;15.43;8.98;;;22.80;1.00;;;;;;4991761;28;20057;-80
2021/08/14 05:41:05;;;;;;;14.85;8.60;;;22.80;1.00;;;;;;4992015;28;20033;-80
2021/08/14 05:43:30;;;;;;;15.98;8.45;;;22.80;1.00;;;;;;4992390;28;20405;-82
2021/08/14 05:45:56;;;;;;;12.75;8.32;;;22.80;1.00;;;;;;4991771;28;20101;-82
2021/08/14 05:48:21;;;;;;;17.75;8.35;;;22.80;1.00;;;;;;4991526;28;20094;-82
2021/08/14 05:50:47;;;;;;;19.65;8.27;;;22.80;1.00;;;;;;4991678;28;20026;-82
2021/08/14 05:53:14;;;;;;;13.60;7.47;;;22.80;1.00;;;;;;4991448;28;20545;-83
2021/08/14 05:55:40;;;;;;;16.45;8.63;;;22.90;1.00;;;;;;4991967;28;20097;-82
2021/08/14 05:58:06;;;;;;;12.63;7.97;;;23.00;1.00;;;;;;4992339;28;20057;-82
2021/08/14 06:00:32;;;;;;;12.27;7.82;;;23.00;1.00;;;;;;4990812;28;20065;-81
2021/08/14 06:02:57;;;;;;;12.18;8.05;;;23.10;1.00;;;;;;4992866;28;20474;-82
2021/08/14 06:05:23;;;;;;;17.40;8.48;;;23.10;1.00;;;;;;4995941;28;20080;-82
2021/08/14 06:07:50;;;;;;;10.88;7.45;;;23.10;1.00;;;;;;4995729;28;20031;-82
2021/08/14 06:10:20;;;;;;;11.90;7.43;;;23.20;1.00;;;;;;4978108;28;20450;-81
2021/08/14 06:12:46;;;;;;;10.68;7.88;;;23.30;1.00;;;;;;4995132;28;20502;-81
2021/08/14 06:15:13;;;;;;;14.05;7.78;;;23.30;1.00;;;;;;4995394;28;20029;-81
2021/08/14 06:17:39;;;;;;;10.05;7.22;;;23.50;1.00;;;;;;4995579;28;20105;-81
2021/08/14 06:20:07;;;;;;;11.82;7.13;;;23.50;1.00;;;;;;4996073;28;20033;-82
2021/08/14 06:22:35;;;;;;;18.70;7.90;;;23.60;1.00;;;;;;4994319;28;20034;-81
2021/08/14 06:25:02;;;;;;;15.20;7.72;;;23.60;1.00;;;;;;4994513;28;20518;-81
2021/08/14 06:27:27;;;;;;;13.60;7.82;;;23.70;1.00;;;;;;4994330;28;20023;-82
2021/08/14 06:29:53;;;;;;;12.90;7.38;;;23.80;1.00;;;;;;4994851;28;20053;-81
2021/08/14 06:32:18;;;;;;;11.65;7.15;;;23.80;1.00;;;;;;4995651;28;20093;-82
2021/08/14 06:34:44;;;;;;;14.57;7.53;;;23.90;1.00;;;;;;4995535;28;20125;-82
2021/08/14 06:37:09;;;;;;;18.67;7.97;;;23.90;1.00;;;;;;4994659;28;20407;-81
2021/08/14 06:39:35;;;;;;;12.38;7.10;;;24.00;1.00;;;;;;4994615;28;20117;-82
2021/08/14 06:42:01;;;;;;;14.35;8.00;;;24.00;1.00;;;;;;4995070;28;20029;-81
2021/08/14 06:44:26;;;;;;;19.30;7.30;;;24.10;1.00;;;;;;4994717;28;20506;-81
2021/08/14 06:46:52;;;;;;;15.00;7.78;;;24.20;1.00;;;;;;4995471;28;20022;-82
2021/08/14 06:49:18;;;;;;;12.02;7.40;;;24.30;1.00;;;;;;4994476;28;20033;-82
2021/08/14 06:51:43;;;;;;;13.23;8.00;;;24.40;1.00;;;;;;4994927;28;20502;-82
2021/08/14 06:54:09;;;;;;;14.35;7.63;;;24.50;1.00;;;;;;4994558;28;20065;-82
2021/08/14 06:56:35;;;;;;;15.43;7.07;;;24.60;1.00;;;;;;4979475;28;20379;-82
2021/08/14 06:59:00;;;;;;;11.43;7.20;;;24.70;1.00;;;;;;4994932;28;20081;-81
2021/08/14 07:01:26;;;;;;;14.80;8.18;;;24.70;1.00;;;;;;4994339;28;20033;-81
2021/08/14 07:03:52;;;;;;;13.23;7.30;;;24.70;1.00;;;;;;4994530;28;20046;-81
2021/08/14 07:06:23;;;;;;;11.73;7.55;;;24.80;1.00;;;;;;4993969;28;20121;-81
2021/08/14 07:08:48;;;;;;;17.63;7.15;;;24.90;1.00;;;;;;4994150;28;20030;-81
2021/08/14 07:11:16;;;;;;;24.88;7.55;;;25.00;1.00;;;;;;4994746;28;20030;-81
2021/08/14 07:13:42;;;;;;;15.68;7.05;;;25.10;1.00;;;;;;4996858;28;20566;-81
2021/08/14 07:16:08;;;;;;;16.98;8.20;;;25.20;1.00;;;;;;4995458;28;20030;-82
2021/08/14 07:18:34;;;;;;;15.55;7.63;;;25.30;1.00;;;;;;4993713;28;20044;-81
2021/08/14 07:20:59;;;;;;;14.88;7.18;;;25.40;1.00;;;;;;4994073;28;20019;-81
2021/08/14 07:23:25;;;;;;;14.77;7.53;;;25.30;1.00;;;;;;4993667;28;20042;-81
2021/08/14 07:25:51;;;;;;;14.25;7.38;;;25.30;1.00;;;;;;4994335;28;20110;-82
2021/08/14 07:28:18;;;;;;;14.98;7.28;;;25.40;1.00;;;;;;4993554;28;20482;-81
2021/08/14 07:30:44;;;;;;;16.10;7.50;;;25.60;1.00;;;;;;4993368;28;20100;-81
2021/08/14 07:33:09;;;;;;;12.23;6.78;;;25.60;1.00;;;;;;4994003;28;20546;-81
2021/08/14 07:35:35;;;;;;;17.60;7.43;;;25.80;1.00;;;;;;4976408;28;20122;-81
2021/08/14 07:38:01;;;;;;;12.18;6.93;;;25.90;1.00;;;;;;4994694;28;20030;-81
2021/08/14 07:40:27;;;;;;;15.32;7.47;;;26.10;1.00;;;;;;4994427;28;20061;-81
2021/08/14 07:42:53;;;;;;;16.17;6.63;;;26.20;1.00;;;;;;4993315;28;20394;-81
2021/08/14 07:45:20;;;;;;;14.27;7.20;;;26.30;1.00;;;;;;4994252;28;20030;-81
2021/08/14 07:47:48;;;;;;;15.65;6.95;;;26.30;1.00;;;;;;4993574;28;20478;-81
2021/08/14 07:50:24;;;;;;;15.75;6.90;;;26.40;1.00;;;;;;4993294;28;20109;-81
2021/08/14 07:52:51;;;;;;;15.05;7.07;;;26.60;1.00;;;;;;4992965;28;20030;-81
2021/08/14 07:55:16;;;;;;;14.85;6.85;;;26.60;1.00;;;;;;4993882;28;20026;-81
2021/08/14 07:57:43;;;;;;;15.45;6.75;;;26.60;1.00;;;;;;4993451;28;20036;-82
2021/08/14 08:00:11;;;;;;;13.98;6.55;;;26.40;1.00;;;;;;4993156;28;20030;-81
2021/08/14 08:02:37;;;;;;;18.88;7.35;;;26.60;1.00;;;;;;4993828;28;20030;-82
2021/08/14 08:05:04;;;;;;;13.57;9.50;;;26.80;1.00;;;;;;4993350;28;20046;-81
2021/08/14 08:07:30;;;;;;;18.80;8.75;;;26.80;1.00;;;;;;4993861;28;20027;-81
2021/08/14 08:09:55;;;;;;;16.77;6.90;;;26.90;1.00;;;;;;4992995;28;20413;-81
2021/08/14 08:12:21;;;;;;;13.48;7.10;;;27.10;1.00;;;;;;4993023;28;20019;-81
2021/08/14 08:14:47;;;;;;;14.70;6.65;;;27.20;1.00;;;;;;4993126;28;20510;-81
2021/08/14 08:17:12;;;;;;;17.40;7.15;;;27.30;1.00;;;;;;4993444;28;20037;-81
2021/08/14 08:19:38;;;;;;;14.80;6.35;;;27.40;1.00;;;;;;4975580;28;20479;-81
2021/08/14 08:22:04;;;;;;;16.38;6.82;;;27.50;1.00;;;;;;4993194;28;20026;-81
2021/08/14 08:24:30;;;;;;;15.23;6.60;;;27.60;1.00;;;;;;4992391;28;20050;-81
2021/08/14 08:26:56;;;;;;;16.90;6.57;;;27.50;1.00;;;;;;4992615;28;20034;-81
2021/08/14 08:29:21;;;;;;;11.60;6.18;;;27.50;99.90;;;;;;4992502;28;20541;-82
2021/08/14 08:31:47;;;;;;;16.45;6.38;;;27.70;99.90;;;;;;4992836;28;20068;-82
2021/08/14 08:34:13;;;;;;;14.65;6.15;;;27.50;99.90;;;;;;4992995;28;20113;-81
2021/08/14 08:36:39;;;;;;;13.98;6.40;;;27.60;99.90;;;;;;4992370;28;20145;-81
2021/08/14 08:39:04;;;;;;;15.63;6.85;;;27.80;99.90;;;;;;4992645;28;20038;-81
2021/08/14 08:41:32;;;;;;;17.92;6.80;;;27.90;99.90;;;;;;4993143;28;20038;-82
2021/08/14 08:43:58;;;;;;;15.93;6.38;;;28.10;99.90;;;;;;4992707;28;20428;-81
2021/08/14 08:46:26;;;;;;;14.52;6.28;;;28.30;99.90;;;;;;4992476;28;20084;-82
2021/08/14 08:48:53;;;;;;;17.25;6.25;;;28.50;99.90;;;;;;4992719;28;20030;-81
2021/08/14 08:51:26;;;;;;;18.40;7.05;;;28.70;99.90;;;;;;4992341;28;20030;-81
2021/08/14 08:53:52;;;;;;;18.20;6.78;;;28.80;99.90;;;;;;4992329;28;20026;-81
2021/08/14 08:56:18;;;;;;;19.10;7.20;;;28.80;99.90;;;;;;4992470;28;20033;-82
2021/08/14 08:58:43;;;;;;;16.00;6.63;;;28.90;99.90;;;;;;4993480;28;20034;-81
2021/08/14 09:01:09;;;;;;;15.85;6.85;;;29.10;99.90;;;;;;4992281;28;20037;-80
2021/08/14 09:03:35;;;;;;;16.67;6.65;;;29.20;99.90;;;;;;4992004;28;20038;-82
2021/08/14 09:06:01;;;;;;;18.75;7.40;;;29.10;99.90;;;;;;4992294;28;20110;-82
2021/08/14 09:08:27;;;;;;;13.38;6.38;;;29.20;99.90;;;;;;4991909;28;20070;-82
2021/08/14 09:11:14;;;;;;;16.63;7.03;;;29.40;99.90;;;;;;4993147;28;20037;-82
2021/08/14 09:14:00;;;;;;;13.52;6.63;;;29.50;99.90;;;;;;4991650;28;20092;-82
2021/08/14 09:16:26;;;;;;;16.88;6.43;;;29.70;99.90;;;;;;4991724;28;20030;-81
2021/08/14 09:19:00;;;;;;;15.02;6.00;;;29.70;99.90;;;;;;4992062;28;20038;-81
2021/08/14 09:21:31;;;;;;;18.23;6.75;;;29.90;99.90;;;;;;4991774;28;20034;-81
2021/08/14 09:23:57;;;;;;;17.75;7.43;;;29.80;99.90;;;;;;4992522;28;20034;-81
2021/08/14 09:26:23;;;;;;;14.70;7.05;;;29.90;99.90;;;;;;4992260;28;20106;-81
2021/08/14 09:29:01;;;;;;;11.90;6.68;;;30.10;99.90;;;;;;4992249;28;20081;-82
2021/08/14 09:31:44;;;;;;;18.80;7.15;;;30.10;99.90;;;;;;4991252;28;20057;-82
2021/08/14 09:34:25;;;;;;;15.13;6.90;;;30.20;99.90;;;;;;4991511;28;20038;-81
2021/08/14 09:37:05;;;;;;;21.75;7.47;;;30.40;99.90;;;;;;4991139;28;20027;-81
2021/08/14 09:39:33;;;;;;;16.20;7.05;;;30.50;99.90;;;;;;4991807;28;20064;-81
2021/08/14 09:42:09;;;;;;;15.80;7.07;;;30.50;99.90;;;;;;4991758;28;20026;-82
2021/08/14 09:44:36;;;;;;;17.17;6.72;;;30.50;99.90;;;;;;4976022;28;20043;-82
2021/08/14 09:47:11;;;;;;;15.85;7.30;;;30.40;99.90;;;;;;4988093;28;20018;-82
2021/08/14 09:49:57;;;;;;;16.25;7.50;;;30.50;99.90;;;;;;4991886;28;20026;-82
2021/08/14 09:52:25;;;;;;;14.90;6.95;;;30.80;99.90;;;;;;4990795;28;20387;-82
2021/08/14 09:54:53;;;;;;;16.73;7.20;;;31.10;99.90;;;;;;4988493;28;20018;-82
2021/08/14 09:57:20;;;;;;;16.95;6.63;;;31.40;99.90;;;;;;4991246;28;20501;-81
2021/08/14 09:59:47;;;;;;;12.52;6.80;;;31.00;99.90;;;;;;4990984;28;20446;-81
2021/08/14 10:02:18;;;;;;;13.35;6.20;;;31.10;99.90;;;;;;4991712;28;20069;-82
2021/08/14 10:04:46;;;;;;;16.02;6.45;;;31.30;99.90;;;;;;4991995;28;20056;-82
2021/08/14 10:07:14;;;;;;;15.27;7.00;;;31.40;99.90;;;;;;4991703;28;20391;-82
2021/08/14 10:09:44;;;;;;;16.45;7.07;;;31.20;99.90;;;;;;4992425;28;20040;-82
2021/08/14 10:12:11;;;;;;;20.65;7.20;;;31.30;99.90;;;;;;4991120;28;20030;-83
2021/08/14 10:14:41;;;;;;;17.05;6.90;;;31.40;99.90;;;;;;4991255;28;20042;-81
2021/08/14 10:17:08;;;;;;;14.80;7.00;;;31.50;99.90;;;;;;4971466;28;20388;-81
2021/08/14 10:19:34;;;;;;;23.05;7.53;;;31.80;99.90;;;;;;4991078;28;20053;-82
2021/08/14 10:22:01;;;;;;;15.70;7.40;;;32.00;99.90;;;;;;4991427;28;20084;-81
2021/08/14 10:24:37;;;;;;;15.68;6.72;;;32.20;99.90;;;;;;4991305;28;20039;-81
2021/08/14 10:27:05;;;;;;;15.80;6.88;;;32.20;99.90;;;;;;4991743;28;20062;-83
2021/08/14 10:29:51;;;;;;;17.25;6.78;;;32.10;99.90;;;;;;4973222;28;20566;-82
2021/08/14 10:32:34;;;;;;;15.68;7.20;;;32.20;99.90;;;;;;4989140;28;20544;-82
2021/08/14 10:35:12;;;;;;;20.02;6.95;;;32.60;99.90;;;;;;4991493;28;20023;-82
2021/08/14 10:37:39;;;;;;;15.52;6.72;;;32.80;99.90;;;;;;4990425;28;20035;-81
2021/08/14 10:40:06;;;;;;;13.27;7.22;;;33.10;99.90;;;;;;4991023;28;20069;-82
2021/08/14 10:42:48;;;;;;;18.85;6.93;;;33.10;99.90;;;;;;4991306;28;20026;-82
2021/08/14 10:45:18;;;;;;;14.23;6.97;;;33.10;99.90;;;;;;4991016;28;20133;-82
2021/08/14 10:47:46;;;;;;;18.05;6.60;;;33.50;99.90;;;;;;4990917;28;20023;-81
2021/08/14 10:50:30;;;;;;;18.75;6.95;;;34.50;99.90;;;;;;4994376;28;20034;-82
2021/08/14 10:53:11;;;;;;;17.13;7.15;;;37.00;99.90;;;;;;4978006;28;20435;-82
2021/08/14 10:55:56;;;;;;;17.02;6.60;;;39.80;99.90;;;;;;4994066;28;20106;-83
2021/08/14 10:58:36;;;;;;;12.40;5.97;;;41.40;99.90;;;;;;4982671;28;20035;-80
2021/08/14 11:01:04;;;;;;;13.98;6.57;;;43.50;99.90;;;;;;4990678;28;20084;-80
2021/08/14 11:03:35;;;;;;;11.88;6.90;;;45.30;99.90;;;;;;4994443;28;20030;-83
2021/08/14 11:06:34;;;;;;;13.85;6.45;;;45.20;99.90;;;;;;4994067;28;20570;-82
2021/08/14 11:09:17;;;;;;;18.02;6.95;;;45.80;99.90;;;;;;4909832;29;20041;-92
2021/08/14 11:12:02;;;;;;;16.23;7.35;;;46.60;99.90;;;;;;4915231;29;20040;-85
2021/08/14 11:14:42;;;;;;;16.92;6.15;;;47.40;99.90;;;;;;4916016;29;20048;-85
2021/08/14 11:17:09;;;;;;;15.68;6.32;;;47.70;99.90;;;;;;4912235;29;20032;-82
2021/08/14 11:19:41;;;;;;;14.63;7.05;;;47.70;99.90;;;;;;4911964;29;20511;-82
2021/08/14 11:22:30;;;;;;;13.70;6.25;;;48.40;99.90;;;;;;4912132;29;20044;-82
2021/08/14 11:24:59;;;;;;;16.63;6.35;;;48.90;99.90;;;;;;4902426;29;20040;-81
2021/08/14 11:27:30;;;;;;;13.27;6.13;;;47.60;99.90;;;;;;4911859;29;20537;-81
2021/08/14 11:29:57;;;;;;;12.57;5.93;;;48.10;99.90;;;;;;4912652;29;20453;-81
2021/08/14 11:32:24;;;;;;;14.20;6.28;;;48.60;99.90;;;;;;4916361;29;20044;-81
2021/08/14 11:34:51;;;;;;;11.68;6.32;;;49.40;99.90;;;;;;4911558;29;20083;-81
2021/08/14 11:37:16;;;;;;;16.38;6.50;;;47.40;99.90;;;;;;4911321;29;20044;-81
2021/08/14 11:39:42;;;;;;;14.13;6.03;;;47.60;99.90;;;;;;4911905;29;20396;-81
2021/08/14 11:42:11;;;;;;;14.95;6.15;;;48.60;99.90;;;;;;4911556;29;20037;-81
2021/08/14 11:44:37;;;;;;;15.82;6.78;;;49.00;99.90;;;;;;4941137;28;20046;-81
2021/08/14 11:47:05;;;;;;;15.05;6.80;;;49.50;99.90;;;;;;4994226;28;20359;-81
2021/08/14 11:49:53;;;;;;;14.23;6.55;;;49.90;99.90;;;;;;4993371;28;20030;-81
2021/08/14 11:52:21;;;;;;;15.10;6.05;;;50.20;99.90;;;;;;4993739;28;20478;-81
2021/08/14 11:54:53;;;;;;;16.45;6.15;;;50.00;99.90;;;;;;4993229;28;20053;-81
2021/08/14 11:57:19;;;;;;;14.48;6.80;;;50.80;99.90;;;;;;4992837;28;20018;-81
2021/08/14 11:59:44;;;;;;;13.20;6.05;;;49.90;99.90;;;;;;4993417;28;20097;-81
2021/08/14 12:02:10;;;;;;;11.75;6.05;;;49.20;99.90;;;;;;4993049;28;20015;-81
2021/08/14 12:04:36;;;;;;;15.38;6.07;;;49.60;99.90;;;;;;4993525;28;20042;-81
2021/08/14 12:07:02;;;;;;;13.30;5.90;;;49.80;99.90;;;;;;4993762;28;20483;-81
2021/08/14 12:09:28;;;;;;;15.80;6.43;;;49.00;99.90;;;;;;4992879;28;20081;-81
2021/08/14 12:11:54;;;;;;;15.60;5.95;;;48.60;99.90;;;;;;4992894;28;20069;-81
2021/08/14 12:14:25;;;;;;;12.75;6.13;;;47.70;99.90;;;;;;4993239;28;20054;-81
2021/08/14 12:17:00;;;;;;;16.00;6.45;;;48.60;99.90;;;;;;4992799;28;20086;-81
2021/08/14 12:19:26;;;;;;;13.20;6.10;;;48.40;99.90;;;;;;4993298;28;20562;-82
2021/08/14 12:22:08;;;;;;;13.07;5.68;;;48.50;99.90;;;;;;4993014;28;20069;-81
2021/08/14 12:24:34;;;;;;;14.43;6.10;;;49.20;99.90;;;;;;4992780;28;20053;-81
2021/08/14 12:27:00;;;;;;;14.85;6.30;;;49.40;99.90;;;;;;4993165;28;20399;-81
2021/08/14 12:29:25;;;;;;;16.27;5.95;;;49.80;99.90;;;;;;4975076;28;20907;-81
2021/08/14 12:31:56;;;;;;;22.02;6.60;;;49.90;99.90;;;;;;4993606;28;20033;-81
2021/08/14 12:34:23;;;;;;;13.77;5.90;;;50.30;99.90;;;;;;5017447;23;20472;-84
2021/08/14 12:37:07;;;;;;;14.00;6.72;;;50.20;99.90;;;;;;5001750;28;20345;-84
2021/08/14 12:39:57;;;;;;;13.43;6.03;;;50.50;99.90;;;;;;4996931;28;20550;-84
2021/08/14 12:42:30;;;;;;;13.75;6.07;;;50.70;99.90;;;;;;4996933;28;20037;-84
2021/08/14 12:44:57;;;;;;;18.20;6.55;;;49.80;99.90;;;;;;4995234;28;20033;-82
2021/08/14 12:47:30;;;;;;;15.85;6.15;;;48.90;99.90;;;;;;4994238;28;20031;-82